Time;durP1;ratioP1;P1;durP2;ratioP2;P2;SDS_P1;SDS_P2;PMS_P1;PMS_P2;Temp;Humidity;BMP_temperature;BMP_pressure;BME280_temperature;BME280_humidity;BME280_pressure;Samples;Min_cycle;Max_cycle;Signal;HPM_P1;HPM_P2
2021/11/01 00:01:09;;;;;;;23.40;17.87;;;12.20;99.90;;;;;;5100522;28;20472;-68
2021/11/01 00:03:36;;;;;;;23.23;17.23;;;12.10;99.90;;;;;;5100857;28;20465;-67
2021/11/01 00:06:05;;;;;;;22.53;17.63;;;12.10;99.90;;;;;;5100704;28;20489;-67
2021/11/01 00:08:32;;;;;;;22.20;18.90;;;12.10;99.90;;;;;;5100360;28;20452;-67
2021/11/01 00:11:00;;;;;;;21.33;18.57;;;12.10;99.90;;;;;;5100427;28;20453;-67
2021/11/01 00:13:27;;;;;;;25.30;19.10;;;12.00;99.90;;;;;;5100192;28;20858;-68
2021/11/01 00:15:53;;;;;;;22.07;18.50;;;12.00;99.90;;;;;;5099701;28;20453;-68
2021/11/01 00:18:20;;;;;;;24.20;18.90;;;12.00;99.90;;;;;;5097852;28;20884;-68
2021/11/01 00:20:47;;;;;;;23.53;17.07;;;12.00;99.90;;;;;;5097666;28;20457;-68
2021/11/01 00:23:13;;;;;;;25.50;17.77;;;12.00;99.90;;;;;;5098032;28;20450;-68
2021/11/01 00:25:40;;;;;;;26.37;19.70;;;12.00;99.90;;;;;;5097764;28;20457;-68
2021/11/01 00:28:10;;;;;;;21.67;17.17;;;12.00;99.90;;;;;;5097885;28;20839;-68
2021/11/01 00:30:37;;;;;;;22.47;17.53;;;11.90;99.90;;;;;;5097395;28;20890;-68
2021/11/01 00:33:04;;;;;;;23.00;17.43;;;11.90;99.90;;;;;;5097437;28;20489;-68
2021/11/01 00:35:30;;;;;;;21.07;18.00;;;11.90;99.90;;;;;;5097601;28;20464;-68
2021/11/01 00:37:57;;;;;;;23.63;17.97;;;11.90;99.90;;;;;;5097593;28;20768;-68
2021/11/01 00:40:24;;;;;;;22.30;17.83;;;11.90;99.90;;;;;;5097127;28;20796;-68
2021/11/01 00:42:51;;;;;;;23.90;18.90;;;11.80;99.90;;;;;;5097114;28;20908;-68
2021/11/01 00:45:19;;;;;;;20.17;17.13;;;11.80;99.90;;;;;;5096997;28;20997;-68
2021/11/01 00:47:46;;;;;;;26.40;17.87;;;11.80;99.90;;;;;;5097207;28;20462;-68
2021/11/01 00:50:14;;;;;;;22.67;17.73;;;11.80;99.90;;;;;;5097167;28;20477;-68
2021/11/01 00:52:41;;;;;;;24.57;19.40;;;11.80;99.90;;;;;;5097250;28;20556;-68
2021/11/01 00:55:10;;;;;;;25.23;19.70;;;11.80;99.90;;;;;;5096534;28;20932;-68
2021/11/01 00:57:37;;;;;;;22.80;18.00;;;11.70;99.90;;;;;;5096356;28;20464;-68
2021/11/01 01:00:05;;;;;;;21.03;17.50;;;11.70;99.90;;;;;;5096981;28;20469;-68
2021/11/01 01:02:33;;;;;;;26.00;17.20;;;11.70;99.90;;;;;;5097212;28;20457;-68
2021/11/01 01:05:01;;;;;;;22.80;18.33;;;11.60;99.90;;;;;;5096865;28;20914;-68
2021/11/01 01:07:28;;;;;;;23.87;18.63;;;11.60;99.90;;;;;;5096575;28;20986;-68
2021/11/01 01:09:55;;;;;;;21.80;17.40;;;11.60;99.90;;;;;;5096403;28;20475;-68
2021/11/01 01:12:23;;;;;;;24.07;17.73;;;11.50;99.90;;;;;;5096753;28;20472;-68
2021/11/01 01:14:55;;;;;;;23.93;18.90;;;11.60;99.90;;;;;;5096546;28;21000;-68
2021/11/01 01:17:22;;;;;;;28.83;19.00;;;11.60;99.90;;;;;;5096732;28;20885;-68
2021/11/01 01:19:56;;;;;;;23.93;19.63;;;11.50;99.90;;;;;;5096501;28;20455;-68
2021/11/01 01:22:28;;;;;;;21.80;18.97;;;11.50;99.90;;;;;;5096306;28;20452;-68
2021/11/01 01:25:19;;;;;;;25.03;19.33;;;11.50;99.90;;;;;;5096625;28;20498;-68
2021/11/01 01:27:46;;;;;;;24.73;18.77;;;11.40;99.90;;;;;;5096380;28;20464;-68
2021/11/01 01:30:14;;;;;;;24.33;18.40;;;11.30;99.90;;;;;;5096118;28;20466;-68
2021/11/01 01:32:42;;;;;;;23.77;18.47;;;11.30;99.90;;;;;;5096172;28;20489;-68
2021/11/01 01:35:11;;;;;;;24.07;19.67;;;11.20;99.90;;;;;;5096531;28;20465;-68
2021/11/01 01:37:37;;;;;;;26.27;19.80;;;11.30;99.90;;;;;;5096303;28;20460;-68
2021/11/01 01:40:07;;;;;;;23.00;18.03;;;11.20;99.90;;;;;;5095705;28;20506;-68
2021/11/01 01:42:34;;;;;;;24.50;19.97;;;11.20;99.90;;;;;;5096261;28;20503;-68
2021/11/01 01:45:00;;;;;;;21.60;17.20;;;11.10;99.90;;;;;;5096077;28;20451;-68
2021/11/01 01:47:27;;;;;;;22.40;18.40;;;11.10;99.90;;;;;;5096049;28;20473;-68
2021/11/01 01:49:54;;;;;;;23.17;18.20;;;11.10;99.90;;;;;;5095697;28;20449;-67
2021/11/01 01:52:22;;;;;;;24.10;18.87;;;11.10;99.90;;;;;;5096532;28;20459;-67
2021/11/01 01:54:49;;;;;;;29.93;19.70;;;11.20;99.90;;;;;;5096364;28;20939;-67
2021/11/01 01:57:16;;;;;;;22.17;18.90;;;11.10;99.90;;;;;;5095534;28;20925;-67
2021/11/01 01:59:43;;;;;;;23.27;18.47;;;11.10;99.90;;;;;;5095434;28;20481;-67
2021/11/01 02:02:10;;;;;;;23.63;18.93;;;11.10;99.90;;;;;;5095565;28;20479;-67
2021/11/01 02:04:37;;;;;;;23.50;18.20;;;11.10;99.90;;;;;;5096056;28;20454;-67
2021/11/01 02:07:14;;;;;;;24.87;18.10;;;11.10;99.90;;;;;;5096052;28;20522;-67
2021/11/01 02:09:56;;;;;;;22.40;18.60;;;11.10;99.90;;;;;;5095858;28;20540;-67
2021/11/01 02:12:29;;;;;;;26.27;19.10;;;11.10;99.90;;;;;;5095605;28;20454;-67
2021/11/01 02:14:59;;;;;;;25.60;19.60;;;11.00;99.90;;;;;;5095673;28;20476;-67
2021/11/01 02:17:28;;;;;;;25.80;18.93;;;11.00;99.90;;;;;;5096603;28;20484;-68
2021/11/01 02:20:00;;;;;;;26.57;19.80;;;11.10;99.90;;;;;;5095744;28;20450;-67
2021/11/01 02:22:37;;;;;;;25.87;19.47;;;11.00;99.90;;;;;;5096319;28;20439;-67
2021/11/01 02:25:09;;;;;;;23.10;19.27;;;11.00;99.90;;;;;;5095507;28;20459;-67
2021/11/01 02:27:40;;;;;;;23.53;18.10;;;11.00;99.90;;;;;;5095418;28;20452;-67
2021/11/01 02:30:10;;;;;;;23.53;19.77;;;10.90;99.90;;;;;;5095147;28;20874;-67
2021/11/01 02:32:38;;;;;;;26.60;19.70;;;10.90;99.90;;;;;;5095358;28;20453;-67
2021/11/01 02:35:06;;;;;;;22.93;19.00;;;10.90;99.90;;;;;;5095198;28;20490;-69
2021/11/01 02:37:32;;;;;;;24.30;18.57;;;10.90;99.90;;;;;;5095049;28;20471;-69
2021/11/01 02:40:00;;;;;;;26.00;19.10;;;10.90;99.90;;;;;;5094851;28;20491;-68
2021/11/01 02:42:28;;;;;;;24.90;18.77;;;10.90;99.90;;;;;;5094884;28;20775;-68
2021/11/01 02:44:59;;;;;;;23.97;18.90;;;10.90;99.90;;;;;;5094784;28;20500;-67
2021/11/01 02:47:27;;;;;;;25.50;18.30;;;10.90;99.90;;;;;;5095037;28;20531;-67
2021/11/01 02:49:55;;;;;;;26.67;19.77;;;10.90;99.90;;;;;;5094984;28;20759;-67
2021/11/01 02:52:22;;;;;;;22.73;18.17;;;10.90;99.90;;;;;;5095299;28;20464;-67
2021/11/01 02:54:51;;;;;;;23.20;19.00;;;10.90;99.90;;;;;;5094880;28;20800;-68
2021/11/01 02:57:22;;;;;;;27.20;19.50;;;10.90;99.90;;;;;;5095059;28;20461;-67
2021/11/01 02:59:48;;;;;;;24.97;19.30;;;10.90;99.90;;;;;;5095029;28;20460;-68
2021/11/01 03:02:17;;;;;;;26.20;19.50;;;10.90;99.90;;;;;;5094530;28;20467;-67
2021/11/01 03:04:44;;;;;;;23.77;18.63;;;10.90;99.90;;;;;;5094919;28;20465;-67
2021/11/01 03:07:11;;;;;;;22.97;17.80;;;10.90;99.90;;;;;;5094759;28;20459;-68
2021/11/01 03:09:41;;;;;;;23.60;18.00;;;10.90;99.90;;;;;;5094707;28;20458;-67
2021/11/01 03:12:10;;;;;;;26.63;19.10;;;10.90;99.90;;;;;;5094946;28;20447;-67
2021/11/01 03:14:48;;;;;;;23.83;20.00;;;10.90;99.90;;;;;;5094639;28;20494;-67
2021/11/01 03:17:20;;;;;;;27.00;20.27;;;10.80;99.90;;;;;;5093345;28;20475;-67
2021/11/01 03:19:52;;;;;;;29.37;18.53;;;10.80;99.90;;;;;;5094621;28;20443;-67
2021/11/01 03:22:20;;;;;;;25.43;19.93;;;10.80;99.90;;;;;;5097555;28;20441;-67
2021/11/01 03:25:00;;;;;;;27.63;21.10;;;10.80;99.90;;;;;;5098710;28;20936;-68
2021/11/01 03:27:31;;;;;;;23.47;20.00;;;10.70;99.90;;;;;;5098617;28;20460;-68
2021/11/01 03:29:59;;;;;;;25.60;19.23;;;10.70;99.90;;;;;;5099019;28;20443;-68
2021/11/01 03:32:27;;;;;;;24.20;20.30;;;10.70;99.90;;;;;;5098921;28;20564;-68
2021/11/01 03:34:54;;;;;;;23.27;18.30;;;10.70;99.90;;;;;;5098392;28;20487;-67
2021/11/01 03:37:22;;;;;;;23.70;19.10;;;10.70;99.90;;;;;;5098511;28;20490;-68
2021/11/01 03:39:49;;;;;;;27.40;18.83;;;10.80;99.90;;;;;;5098297;28;20495;-68
2021/11/01 03:42:17;;;;;;;27.30;20.53;;;10.80;99.90;;;;;;5098482;28;20937;-69
2021/11/01 03:44:47;;;;;;;23.13;20.03;;;10.70;99.90;;;;;;5098672;28;20543;-68
2021/11/01 03:47:15;;;;;;;27.10;19.80;;;10.70;99.90;;;;;;5098270;28;20538;-68
2021/11/01 03:49:55;;;;;;;30.53;20.97;;;10.60;99.90;;;;;;5098341;28;20457;-68
2021/11/01 03:52:24;;;;;;;27.00;19.93;;;10.60;99.90;;;;;;5098137;28;20547;-68
2021/11/01 03:54:52;;;;;;;22.93;19.93;;;10.60;99.90;;;;;;5098555;28;20538;-68
2021/11/01 03:57:20;;;;;;;23.93;18.60;;;10.60;99.90;;;;;;5098199;28;20453;-68
2021/11/01 03:59:47;;;;;;;28.27;20.77;;;10.60;99.90;;;;;;5098102;28;20519;-68
2021/11/01 04:02:16;;;;;;;24.33;20.07;;;10.50;99.90;;;;;;5098054;28;20454;-68
2021/11/01 04:04:47;;;;;;;24.80;20.50;;;10.60;99.90;;;;;;5098132;28;20450;-68
2021/11/01 04:07:14;;;;;;;23.87;19.47;;;10.60;99.90;;;;;;5098049;28;20460;-67
2021/11/01 04:09:41;;;;;;;29.23;20.20;;;10.60;99.90;;;;;;5097826;28;20560;-67
2021/11/01 04:12:09;;;;;;;29.90;19.43;;;10.60;99.90;;;;;;5097920;28;20470;-67
2021/11/01 04:14:43;;;;;;;26.83;21.13;;;10.60;99.90;;;;;;5098329;28;20481;-67
2021/11/01 04:17:19;;;;;;;26.40;20.27;;;10.60;99.90;;;;;;5097923;28;20443;-67
2021/11/01 04:19:55;;;;;;;25.20;19.57;;;10.60;99.90;;;;;;5097823;28;20440;-67
2021/11/01 04:22:22;;;;;;;26.03;20.87;;;10.60;99.90;;;;;;5098143;28;20461;-68
2021/11/01 04:24:49;;;;;;;23.20;19.50;;;10.60;99.90;;;;;;5097840;28;20786;-67
2021/11/01 04:27:17;;;;;;;26.27;20.37;;;10.50;99.90;;;;;;5097551;28;20485;-67
2021/11/01 04:29:44;;;;;;;26.30;20.50;;;10.50;99.90;;;;;;5097905;28;20479;-68
2021/11/01 04:32:26;;;;;;;30.10;22.47;;;10.50;99.90;;;;;;5100142;28;20459;-68
2021/11/01 04:34:59;;;;;;;27.70;22.23;;;10.50;99.90;;;;;;5097711;28;20564;-68
2021/11/01 04:37:27;;;;;;;24.47;20.37;;;10.50;99.90;;;;;;5097487;28;20549;-68
2021/11/01 04:53:59;;;;;;;27.13;19.80;;;10.40;1.00;;;;;;5096828;28;20465;-68
2021/11/01 04:56:26;;;;;;;28.33;20.20;;;10.40;1.00;;;;;;5096927;28;20457;-68
2021/11/01 04:58:54;;;;;;;23.90;20.83;;;10.40;1.00;;;;;;5097108;28;20471;-68
2021/11/01 05:01:25;;;;;;;26.33;20.97;;;10.40;1.00;;;;;;5096879;28;20454;-68
2021/11/01 05:03:53;;;;;;;27.30;21.27;;;10.50;1.00;;;;;;5096931;28;20550;-68
2021/11/01 05:06:25;;;;;;;30.17;22.07;;;10.40;1.00;;;;;;5096916;28;20465;-68
2021/11/01 05:08:57;;;;;;;27.80;21.00;;;10.30;1.00;;;;;;5097083;28;20457;-68
2021/11/01 05:11:30;;;;;;;28.60;21.60;;;10.30;1.00;;;;;;5097000;28;20765;-68
2021/11/01 05:13:59;;;;;;;32.03;21.87;;;10.40;1.00;;;;;;5096716;28;20527;-68
2021/11/01 05:16:36;;;;;;;27.90;21.37;;;10.40;1.00;;;;;;5096736;28;20493;-68
2021/11/01 05:19:08;;;;;;;32.07;22.37;;;10.40;1.00;;;;;;5096433;28;20873;-68
2021/11/01 05:21:40;;;;;;;29.63;22.57;;;10.40;1.00;;;;;;5096723;28;20473;-68
2021/11/01 05:24:10;;;;;;;29.03;21.57;;;10.40;1.00;;;;;;5096616;28;20440;-68
2021/11/01 05:26:54;;;;;;;28.23;21.60;;;10.40;1.00;;;;;;5096329;28;20614;-67
2021/11/01 05:29:20;;;;;;;31.70;23.27;;;10.40;1.00;;;;;;5096657;28;20995;-68
2021/11/01 05:31:54;;;;;;;28.33;20.70;;;10.50;1.00;;;;;;5096355;28;20797;-68
2021/11/01 05:34:21;;;;;;;29.30;22.33;;;10.50;1.00;;;;;;5096228;28;20466;-68
2021/11/01 05:36:49;;;;;;;28.10;22.50;;;10.50;1.00;;;;;;5096414;28;20760;-68
2021/11/01 05:39:16;;;;;;;26.73;21.47;;;10.50;1.00;;;;;;5095828;28;20484;-67
2021/11/01 05:41:43;;;;;;;29.70;22.17;;;10.50;1.00;;;;;;5096171;28;20471;-67
2021/11/01 05:44:10;;;;;;;30.47;22.77;;;10.50;1.00;;;;;;5095918;28;20469;-67
2021/11/01 05:46:39;;;;;;;29.10;21.43;;;10.60;1.00;;;;;;5096035;28;20815;-68
2021/11/01 05:49:07;;;;;;;29.00;21.10;;;10.60;1.00;;;;;;5096298;28;20455;-67
2021/11/01 05:51:35;;;;;;;27.63;22.37;;;10.60;99.90;;;;;;5096038;28;20945;-68
2021/11/01 05:54:07;;;;;;;29.47;22.60;;;10.60;99.90;;;;;;5095875;28;20470;-67
2021/11/01 05:56:40;;;;;;;29.47;22.57;;;10.60;1.00;;;;;;5096264;28;20442;-69
2021/11/01 05:59:23;;;;;;;31.70;24.30;;;10.60;1.00;;;;;;5096448;28;20811;-68
2021/11/01 06:02:22;;;;;;;29.60;22.37;;;10.50;1.00;;;;;;5095893;28;20822;-68
2021/11/01 06:05:00;;;;;;;28.00;22.17;;;10.60;1.00;;;;;;5095948;28;20450;-68
2021/11/01 06:07:36;;;;;;;27.80;21.10;;;10.60;1.00;;;;;;5095710;28;20505;-68
2021/11/01 06:10:10;;;;;;;30.50;24.50;;;10.70;99.90;;;;;;5095484;28;20441;-68
2021/11/01 06:15:22;;;;;;;28.87;22.50;;;10.70;99.90;;;;;;5095475;28;20520;-68
2021/11/01 06:17:49;;;;;;;30.13;23.13;;;10.70;99.90;;;;;;5095614;28;20994;-67
2021/11/01 06:20:17;;;;;;;28.80;22.00;;;10.60;99.90;;;;;;5095528;28;20515;-68
2021/11/01 06:22:44;;;;;;;28.73;22.07;;;10.70;99.90;;;;;;5095328;28;20531;-68
2021/11/01 06:25:15;;;;;;;30.00;23.60;;;10.70;99.90;;;;;;5094845;28;20895;-67
2021/11/01 06:27:43;;;;;;;28.70;20.73;;;10.70;99.90;;;;;;5095089;28;20439;-69
2021/11/01 06:30:17;;;;;;;27.90;22.63;;;10.70;99.90;;;;;;5095280;28;20455;-69
2021/11/01 06:32:46;;;;;;;31.47;21.90;;;10.70;99.90;;;;;;5094971;28;20441;-68
2021/11/01 06:40:58;;;;;;;27.90;20.30;;;10.80;99.90;;;;;;5095507;28;20451;-69
2021/11/01 06:43:27;;;;;;;26.03;21.13;;;10.80;99.90;;;;;;5094814;28;20435;-68
2021/11/01 06:54:36;;;;;;;29.30;22.67;;;11.00;99.90;;;;;;5094522;28;20473;-67
2021/11/01 07:16:33;;;;;;;31.30;23.00;;;11.50;1.00;;;;;;5094549;28;20480;-68
2021/11/01 07:19:04;;;;;;;28.10;21.47;;;11.60;99.90;;;;;;5094732;28;20445;-69
2021/11/01 08:44:35;;;;;;;28.10;20.70;;;12.70;1.00;;;;;;5076540;28;20462;-69
2021/11/01 08:47:16;;;;;;;27.50;20.13;;;12.70;1.00;;;;;;5076999;28;20450;-68
2021/11/01 09:20:03;;;;;;;23.10;19.27;;;13.30;1.00;;;;;;4996112;28;20493;-68
2021/11/01 09:22:51;;;;;;;26.20;19.73;;;13.30;1.00;;;;;;5028518;28;20553;-68
2021/11/01 09:25:41;;;;;;;27.17;19.83;;;13.40;1.00;;;;;;5076453;28;20446;-68
2021/11/01 09:28:18;;;;;;;23.93;19.33;;;13.40;1.00;;;;;;5076921;28;20468;-67
2021/11/01 09:39:41;;;;;;;25.60;19.20;;;13.50;1.00;;;;;;5055687;28;20599;-69
2021/11/01 09:42:09;;;;;;;25.83;18.43;;;13.50;1.00;;;;;;5076317;28;20466;-69
2021/11/01 09:44:37;;;;;;;24.03;18.43;;;13.50;1.00;;;;;;5075863;28;20977;-69
2021/11/01 09:47:05;;;;;;;24.97;18.37;;;13.50;1.00;;;;;;5076353;28;20472;-69
2021/11/01 09:49:32;;;;;;;22.50;18.17;;;13.50;1.00;;;;;;5077966;28;20458;-69
2021/11/01 09:52:01;;;;;;;21.80;17.67;;;13.60;1.00;;;;;;5076269;28;20477;-69
2021/11/01 09:57:22;;;;;;;21.60;17.13;;;13.60;1.00;;;;;;5074745;28;20567;-69
2021/11/01 09:59:51;;;;;;;22.43;17.33;;;13.70;1.00;;;;;;5077258;28;20450;-68
2021/11/01 10:02:22;;;;;;;24.50;17.53;;;13.70;1.00;;;;;;5076506;28;20451;-69
2021/11/01 10:04:53;;;;;;;22.07;16.27;;;13.70;1.00;;;;;;5076400;28;20745;-69
2021/11/01 10:07:23;;;;;;;23.13;16.37;;;13.80;99.90;;;;;;5075716;28;20439;-69
2021/11/01 10:09:52;;;;;;;23.93;15.73;;;13.80;99.90;;;;;;5076264;28;20482;-69
2021/11/01 10:12:21;;;;;;;25.10;17.90;;;13.80;99.90;;;;;;5075935;28;20482;-69
2021/11/01 10:14:52;;;;;;;22.40;16.10;;;13.80;99.90;;;;;;5076131;28;20481;-69
2021/11/01 10:17:34;;;;;;;23.43;16.63;;;13.80;99.90;;;;;;5081565;28;20438;-69
2021/11/01 10:20:06;;;;;;;22.00;16.60;;;13.80;1.00;;;;;;5080254;28;20504;-69
2021/11/01 10:22:35;;;;;;;21.50;16.20;;;13.90;1.00;;;;;;5080465;28;20454;-69
2021/11/01 10:25:02;;;;;;;22.93;16.20;;;13.90;1.00;;;;;;5080805;28;20523;-69
2021/11/01 10:27:33;;;;;;;23.10;17.83;;;13.90;36.50;;;;;;5079253;28;20459;-69
2021/11/01 10:30:03;;;;;;;22.20;16.77;;;13.80;99.90;;;;;;5079371;28;20478;-69
2021/11/01 10:32:32;;;;;;;23.30;17.50;;;13.70;99.90;;;;;;5078535;28;20540;-69
2021/11/01 10:35:22;;;;;;;23.03;18.03;;;13.70;96.00;;;;;;5078413;28;20959;-69
2021/11/01 10:38:06;;;;;;;23.13;15.90;;;13.70;27.10;;;;;;5074069;28;20451;-69
2021/11/01 10:40:36;;;;;;;26.20;17.57;;;13.60;99.90;;;;;;5077745;28;20439;-68
2021/11/01 10:43:20;;;;;;;22.77;17.13;;;13.60;99.90;;;;;;5075305;28;20512;-68
2021/11/01 10:46:20;;;;;;;25.53;17.20;;;13.70;99.90;;;;;;5074959;28;20439;-68
2021/11/01 10:57:27;;;;;;;23.70;15.90;;;13.90;1.00;;;;;;5074706;28;20514;-70
2021/11/01 11:13:47;;;;;;;14.20;10.63;;;14.30;99.90;;;;;;5054299;28;20453;-69
2021/11/01 11:16:36;;;;;;;13.27;8.93;;;14.30;99.90;;;;;;5074442;28;20450;-69
2021/11/01 11:19:13;;;;;;;15.33;11.53;;;14.30;99.90;;;;;;5074488;28;20834;-69
2021/11/01 11:24:43;;;;;;;17.17;11.47;;;14.20;1.00;;;;;;5070382;28;20447;-68
2021/11/01 11:32:50;;;;;;;13.97;10.30;;;14.10;99.90;;;;;;5073533;28;20973;-69
2021/11/01 11:38:23;;;;;;;13.83;11.50;;;14.00;1.00;;;;;;5074033;28;20438;-69
2021/11/01 11:43:55;;;;;;;16.53;11.70;;;14.00;99.90;;;;;;5073880;28;20423;-70
2021/11/01 11:49:11;;;;;;;16.90;10.10;;;14.10;1.00;;;;;;5073836;28;20426;-69
2021/11/01 11:51:52;;;;;;;12.40;9.97;;;14.20;99.90;;;;;;5074237;28;20467;-70
2021/11/01 11:54:30;;;;;;;18.50;10.67;;;14.20;99.90;;;;;;5076100;28;20475;-67
2021/11/01 11:57:03;;;;;;;18.20;11.00;;;14.20;99.90;;;;;;5074838;28;20450;-69
2021/11/01 11:59:34;;;;;;;16.03;11.63;;;14.20;99.90;;;;;;5073909;28;20530;-68
2021/11/01 12:02:05;;;;;;;14.50;10.93;;;14.30;99.90;;;;;;5074221;28;20439;-69
2021/11/01 12:04:35;;;;;;;15.20;11.53;;;14.30;99.90;;;;;;5073835;28;20447;-69
2021/11/01 12:07:07;;;;;;;17.93;11.10;;;14.30;1.00;;;;;;5073564;28;20790;-69
2021/11/01 12:09:39;;;;;;;17.50;12.20;;;14.40;1.00;;;;;;5073871;28;20501;-68
2021/11/01 12:12:28;;;;;;;17.40;11.53;;;14.40;1.00;;;;;;5073851;28;20513;-70
2021/11/01 12:17:39;;;;;;;19.33;13.40;;;14.20;1.00;;;;;;5074151;28;20441;-69
2021/11/01 12:20:08;;;;;;;19.47;11.57;;;14.20;1.00;;;;;;5077206;28;20469;-69
2021/11/01 12:22:43;;;;;;;15.43;11.80;;;14.00;99.90;;;;;;5077758;28;20462;-68
2021/11/01 12:25:17;;;;;;;17.30;12.70;;;14.00;99.90;;;;;;5077588;28;20448;-68
2021/11/01 12:27:56;;;;;;;15.53;11.27;;;14.00;1.00;;;;;;5078106;28;20828;-69
2021/11/01 12:30:27;;;;;;;14.47;12.17;;;14.00;1.00;;;;;;5076162;28;20819;-69
2021/11/01 12:32:54;;;;;;;14.90;11.67;;;13.90;1.00;;;;;;5076601;28;20569;-69
2021/11/01 12:35:25;;;;;;;17.17;12.80;;;13.80;1.00;;;;;;5077230;28;20455;-69
2021/11/01 12:37:57;;;;;;;16.40;13.03;;;13.80;99.90;;;;;;5077230;28;20439;-69
2021/11/01 12:40:30;;;;;;;18.90;13.17;;;13.70;99.90;;;;;;5077120;28;20821;-69
2021/11/01 12:43:27;;;;;;;24.97;13.30;;;13.70;99.90;;;;;;5077796;28;20435;-69
2021/11/01 12:57:18;;;;;;;17.90;12.97;;;13.50;1.00;;;;;;5076504;28;20505;-70
2021/11/01 12:59:47;;;;;;;18.73;12.83;;;13.50;1.00;;;;;;5077129;28;20453;-70
2021/11/01 13:02:16;;;;;;;16.13;11.60;;;13.50;1.00;;;;;;5076813;28;20459;-69
2021/11/01 13:04:45;;;;;;;19.40;12.23;;;13.40;1.00;;;;;;5076812;28;20772;-68
2021/11/01 13:07:25;;;;;;;15.13;11.50;;;13.40;1.00;;;;;;5076684;28;20455;-68
2021/11/01 13:09:57;;;;;;;14.10;10.47;;;13.40;1.00;;;;;;5076599;28;20541;-69
2021/11/01 13:12:46;;;;;;;17.80;9.20;;;13.30;1.00;;;;;;5076469;28;20483;-68
2021/11/01 13:18:18;;;;;;;12.43;8.93;;;13.40;1.00;;;;;;5076555;28;20425;-68
2021/11/01 13:20:48;;;;;;;13.37;9.90;;;13.30;1.00;;;;;;5076309;28;20442;-68
2021/11/01 13:23:15;;;;;;;15.80;9.30;;;13.30;1.00;;;;;;5076248;28;20439;-67
2021/11/01 13:28:46;;;;;;;15.33;9.60;;;13.50;1.00;;;;;;5072074;28;20520;-68
2021/11/01 13:37:10;;;;;;;14.73;9.33;;;13.40;1.00;;;;;;5051886;28;20512;-68
2021/11/01 13:39:38;;;;;;;13.73;11.10;;;13.40;1.00;;;;;;5076371;28;20845;-68
2021/11/01 13:42:12;;;;;;;13.10;9.40;;;13.40;1.00;;;;;;5076225;28;20465;-68
2021/11/01 13:44:39;;;;;;;12.77;9.50;;;13.40;1.00;;;;;;5076184;28;20449;-68
2021/11/01 13:47:08;;;;;;;9.80;8.23;;;13.40;1.00;;;;;;5076149;28;20458;-70
2021/11/01 13:49:36;;;;;;;10.40;7.70;;;13.40;1.00;;;;;;5076415;28;20576;-68
2021/11/01 13:52:19;;;;;;;10.90;8.03;;;13.30;1.00;;;;;;5075984;28;20492;-68
2021/11/01 13:54:57;;;;;;;10.40;7.43;;;13.30;1.00;;;;;;5076028;28;20443;-68
2021/11/01 13:57:27;;;;;;;10.70;7.40;;;13.30;1.00;;;;;;5075816;28;20495;-68
2021/11/01 14:00:08;;;;;;;8.27;6.50;;;13.20;1.00;;;;;;5075623;28;20523;-68
2021/11/01 14:13:55;;;;;;;6.60;5.13;;;12.90;1.00;;;;;;5075143;28;20493;-68
2021/11/01 14:16:27;;;;;;;8.70;4.70;;;12.80;1.00;;;;;;5075226;28;20542;-68
2021/11/01 14:27:24;;;;;;;5.63;4.17;;;12.50;1.00;;;;;;5075261;28;20424;-69
2021/11/01 14:35:50;;;;;;;5.13;3.27;;;12.30;1.00;;;;;;5074944;28;20478;-68
2021/11/01 15:01:00;;;;;;;10.33;4.20;;;12.00;99.90;;;;;;5074754;28;20447;-68
2021/11/01 15:09:38;;;;;;;4.80;2.70;;;11.90;99.90;;;;;;5074128;28;20440;-67
2021/11/01 15:17:45;;;;;;;7.40;3.13;;;11.90;99.90;;;;;;5072080;28;20453;-67
2021/11/01 15:20:26;;;;;;;6.00;3.00;;;11.90;99.90;;;;;;5074149;28;20443;-67
2021/11/01 15:28:57;;;;;;;4.13;3.43;;;11.90;99.90;;;;;;5073788;28;20432;-67
2021/11/01 15:34:45;;;;;;;4.27;3.50;;;11.90;99.90;;;;;;5073987;28;20452;-67
2021/11/01 15:37:41;;;;;;;6.10;3.50;;;12.00;99.90;;;;;;5074053;28;20468;-67
2021/11/01 15:40:23;;;;;;;7.80;3.33;;;12.00;99.90;;;;;;5074005;28;20937;-67
2021/11/01 16:18:33;;;;;;;5.63;4.57;;;12.20;90.70;;;;;;5077604;28;20448;-68
2021/11/01 16:21:01;;;;;;;9.47;5.37;;;12.20;97.70;;;;;;5077843;28;20831;-68
2021/11/01 16:23:35;;;;;;;5.97;4.93;;;12.10;98.10;;;;;;5077736;28;20460;-68
2021/11/01 16:26:14;;;;;;;9.40;4.60;;;12.10;99.90;;;;;;5077635;28;20462;-68
2021/11/01 16:28:41;;;;;;;7.03;4.87;;;12.20;99.90;;;;;;5077452;28;20509;-68
2021/11/01 16:31:24;;;;;;;10.17;4.40;;;12.10;95.00;;;;;;5076685;28;20953;-68
2021/11/01 16:33:55;;;;;;;4.97;4.20;;;12.10;99.90;;;;;;5077279;28;20833;-67
2021/11/01 16:36:39;;;;;;;6.10;4.50;;;12.20;99.90;;;;;;5077115;28;20486;-67
2021/11/01 16:39:06;;;;;;;6.53;5.10;;;12.20;99.90;;;;;;5076955;28;20445;-67
2021/11/01 16:41:35;;;;;;;8.77;4.70;;;12.10;99.70;;;;;;5077395;28;20458;-67
2021/11/01 16:44:15;;;;;;;6.73;4.27;;;12.10;97.20;;;;;;5076995;28;20469;-67
2021/11/01 16:46:45;;;;;;;9.70;4.47;;;12.20;94.40;;;;;;5077412;28;20487;-68
2021/11/01 16:49:13;;;;;;;10.37;5.03;;;12.20;91.40;;;;;;5077397;28;20461;-67
2021/11/01 16:51:41;;;;;;;6.80;5.00;;;12.20;64.10;;;;;;5076905;28;20552;-67
2021/11/01 16:54:09;;;;;;;7.10;4.70;;;12.10;50.90;;;;;;5077026;28;20487;-67
2021/11/01 16:56:55;;;;;;;5.87;4.27;;;12.10;45.70;;;;;;5076627;28;20461;-68
2021/11/01 17:05:10;;;;;;;6.73;4.20;;;12.20;16.00;;;;;;5072364;28;20450;-67
2021/11/01 17:07:49;;;;;;;6.03;4.00;;;12.10;42.30;;;;;;5076768;28;20442;-68
2021/11/01 17:10:47;;;;;;;5.63;4.37;;;12.20;17.00;;;;;;5076792;28;20840;-67
2021/11/01 17:21:49;;;;;;;6.67;4.20;;;12.10;13.10;;;;;;5076519;28;20890;-68
2021/11/01 17:24:21;;;;;;;5.13;4.03;;;12.10;1.00;;;;;;5076479;28;20443;-68
2021/11/01 17:30:05;;;;;;;7.60;4.63;;;12.10;1.00;;;;;;5074171;28;20510;-68
2021/11/01 17:35:30;;;;;;;5.07;4.47;;;12.00;1.00;;;;;;5077799;28;20758;-68
2021/11/01 17:38:32;;;;;;;6.00;4.87;;;12.00;1.00;;;;;;5078077;28;20439;-68
2021/11/01 18:42:41;;;;;;;5.60;4.73;;;12.10;1.00;;;;;;5057521;28;20507;-69
2021/11/01 18:45:18;;;;;;;5.47;4.90;;;12.20;1.00;;;;;;5075286;28;20442;-69
2021/11/01 18:50:54;;;;;;;6.70;4.87;;;12.10;1.00;;;;;;5074970;28;20471;-71
2021/11/01 18:53:33;;;;;;;6.00;4.80;;;12.20;1.00;;;;;;5074494;28;20524;-70
2021/11/01 18:56:03;;;;;;;6.50;4.60;;;12.10;1.00;;;;;;5075189;28;20536;-70
2021/11/01 18:58:33;;;;;;;5.93;4.83;;;12.10;1.00;;;;;;5075350;28;20516;-71
2021/11/01 19:01:01;;;;;;;9.30;4.87;;;12.10;1.00;;;;;;5074798;28;20789;-72
2021/11/01 19:03:32;;;;;;;11.00;4.30;;;12.10;1.00;;;;;;5074646;28;20537;-72
2021/11/01 19:06:06;;;;;;;7.07;5.27;;;12.10;1.00;;;;;;5074851;28;20541;-71
2021/11/01 19:08:46;;;;;;;9.50;6.70;;;12.00;1.00;;;;;;5074297;28;20498;-71
2021/11/01 20:04:40;;;;;;;8.50;4.57;;;11.90;1.00;;;;;;5074433;28;20526;-69
2021/11/01 20:10:16;;;;;;;7.90;5.27;;;11.90;1.00;;;;;;5075082;28;20515;-69
2021/11/01 20:13:02;;;;;;;7.37;4.50;;;11.90;1.00;;;;;;5074312;28;20494;-69
2021/11/01 20:15:51;;;;;;;6.30;4.83;;;11.90;1.00;;;;;;5075013;28;20456;-69
2021/11/01 21:26:20;;;;;;;5.50;3.77;;;11.60;15.10;;;;;;5081139;28;20829;-67
2021/11/01 21:28:53;;;;;;;6.70;5.80;;;11.50;29.80;;;;;;5082027;28;20459;-68
2021/11/01 21:31:28;;;;;;;6.30;4.10;;;11.50;47.10;;;;;;5081042;28;20514;-68
2021/11/01 21:33:57;;;;;;;8.07;4.13;;;11.50;60.50;;;;;;5082319;28;20463;-69
2021/11/01 21:36:33;;;;;;;4.00;3.50;;;11.50;71.40;;;;;;5081556;28;20463;-69
2021/11/01 21:39:05;;;;;;;5.40;4.00;;;11.40;76.60;;;;;;5080711;28;20941;-69
2021/11/01 21:41:33;;;;;;;6.83;4.90;;;11.50;89.20;;;;;;5081038;28;20452;-68
2021/11/01 21:44:00;;;;;;;10.60;7.77;;;11.40;97.90;;;;;;5082246;28;20524;-67
2021/11/01 21:46:27;;;;;;;5.83;4.20;;;11.40;99.90;;;;;;5081775;28;20908;-68
2021/11/01 21:48:54;;;;;;;6.10;4.90;;;11.40;99.90;;;;;;5080528;28;20469;-69
2021/11/01 21:51:22;;;;;;;6.37;4.57;;;11.40;99.90;;;;;;5082847;28;20465;-68
2021/11/01 21:53:55;;;;;;;7.27;5.13;;;11.30;99.90;;;;;;5078983;28;20484;-69
2021/11/01 21:56:23;;;;;;;5.33;4.60;;;11.30;99.90;;;;;;5078346;28;20527;-68
2021/11/01 21:59:12;;;;;;;6.33;4.70;;;11.20;99.90;;;;;;5077877;28;20461;-69
2021/11/01 22:10:14;;;;;;;6.33;4.30;;;11.10;99.90;;;;;;5082608;28;20914;-69
2021/11/01 22:18:28;;;;;;;5.83;4.03;;;11.10;99.90;;;;;;5034382;28;20454;-69
2021/11/01 22:20:59;;;;;;;5.57;4.30;;;11.10;99.90;;;;;;5066989;28;20935;-68
2021/11/01 22:23:35;;;;;;;7.90;4.20;;;11.00;99.90;;;;;;5076563;28;20441;-71
2021/11/01 22:26:05;;;;;;;6.23;4.20;;;11.00;99.90;;;;;;5075647;28;20504;-68
2021/11/01 22:34:14;;;;;;;5.30;4.10;;;11.10;99.90;;;;;;5075094;28;20489;-67